createdAt,value
2022-08-19T00:01:59.028Z,87.10
2022-08-19T00:04:30.953Z,87.05
2022-08-19T00:06:58.272Z,86.94
2022-08-19T00:09:25.088Z,86.63
2022-08-19T00:11:53.527Z,86.39
2022-08-19T00:14:21.594Z,85.58
2022-08-19T00:16:49.435Z,85.31
2022-08-19T00:19:17.568Z,85.94
2022-08-19T00:21:44.288Z,85.40
2022-08-19T00:24:13.448Z,84.66
2022-08-19T00:26:41.763Z,85.17
2022-08-19T00:29:12.500Z,84.94
2022-08-19T00:31:39.330Z,84.94
2022-08-19T00:34:06.101Z,85.14
2022-08-19T00:36:33.479Z,85.47
2022-08-19T00:39:00.215Z,85.51
2022-08-19T00:41:27.670Z,85.63
2022-08-19T00:44:09.767Z,85.36
2022-08-19T00:46:39.376Z,84.99
2022-08-19T00:49:30.534Z,85.58
2022-08-19T00:52:04.584Z,85.57
2022-08-19T00:54:32.370Z,85.68
2022-08-19T00:57:00.496Z,85.88
2022-08-19T00:59:53.446Z,86.02
2022-08-19T01:02:17.261Z,85.88
2022-08-19T01:04:44.229Z,85.83
2022-08-19T01:07:10.639Z,85.92
2022-08-19T01:09:41.598Z,86.05
2022-08-19T01:12:09.810Z,85.88
2022-08-19T01:14:39.675Z,86.58
2022-08-19T01:17:07.311Z,86.15
2022-08-19T01:19:43.634Z,86.45
2022-08-19T01:22:36.324Z,86.64
2022-08-19T01:25:04.468Z,87.09
2022-08-19T01:27:43.198Z,86.95
2022-08-19T01:30:11.747Z,87.08
2022-08-19T01:32:38.135Z,87.18
2022-08-19T01:35:05.514Z,87.13
2022-08-19T01:37:50.130Z,86.92
2022-08-19T01:40:18.046Z,87.11
2022-08-19T01:42:44.479Z,87.19
2022-08-19T01:45:11.406Z,87.63
2022-08-19T01:47:38.395Z,87.58
2022-08-19T01:50:07.209Z,87.72
2022-08-19T01:52:37.679Z,87.42
2022-08-19T01:55:06.103Z,87.84
2022-08-19T01:57:32.651Z,87.76
2022-08-19T02:00:00.922Z,87.59
2022-08-19T02:02:27.404Z,87.69
2022-08-19T02:04:53.775Z,87.45
2022-08-19T02:07:24.026Z,87.69
2022-08-19T02:09:50.480Z,87.63
2022-08-19T02:12:17.514Z,87.34
2022-08-19T02:14:44.560Z,87.67
2022-08-19T02:17:10.960Z,87.17
2022-08-19T02:19:39.001Z,87.45
2022-08-19T02:22:08.224Z,87.34
2022-08-19T02:24:35.042Z,87.59
2022-08-19T02:27:01.443Z,87.61
2022-08-19T02:29:28.340Z,87.39
2022-08-19T02:31:54.757Z,87.81
2022-08-19T02:34:21.111Z,87.76
2022-08-19T02:36:51.933Z,87.57
2022-08-19T02:39:19.331Z,88.00
2022-08-19T02:41:45.886Z,87.79
2022-08-19T02:44:28.826Z,87.75
2022-08-19T02:46:57.844Z,87.70
2022-08-19T02:49:24.846Z,87.28
2022-08-19T02:51:51.304Z,87.80
2022-08-19T02:54:17.722Z,87.66
2022-08-19T02:56:45.381Z,87.76
2022-08-19T02:59:12.505Z,87.81
2022-08-19T03:01:41.418Z,88.04
2022-08-19T03:04:11.285Z,88.04
2022-08-19T03:06:39.537Z,88.06
2022-08-19T03:09:06.067Z,87.74
2022-08-19T03:11:34.295Z,88.02
2022-08-19T03:14:03.221Z,88.06
2022-08-19T03:16:33.290Z,87.87
2022-08-19T03:19:01.346Z,87.85
2022-08-19T03:21:30.519Z,87.77
2022-08-19T03:23:58.895Z,87.34
2022-08-19T03:26:26.168Z,87.75
2022-08-19T03:28:58.640Z,87.82
2022-08-19T03:31:43.423Z,88.00
2022-08-19T03:34:27.250Z,87.82
2022-08-19T03:37:00.141Z,88.24
2022-08-19T03:39:27.170Z,88.18
2022-08-19T03:42:38.545Z,88.57
2022-08-19T03:44:45.840Z,87.82
2022-08-19T03:47:16.770Z,87.78
2022-08-19T03:49:43.515Z,88.24
2022-08-19T03:52:10.388Z,88.11
2022-08-19T03:54:36.943Z,88.30
2022-08-19T03:57:03.923Z,87.73
2022-08-19T03:59:35.334Z,88.16
2022-08-19T04:02:06.197Z,87.78
2022-08-19T04:04:32.552Z,87.88
2022-08-19T04:07:00.134Z,88.36
2022-08-19T04:09:26.825Z,88.41
2022-08-19T04:11:56.066Z,87.93
2022-08-19T04:14:26.635Z,88.31
2022-08-19T04:16:53.473Z,88.52
2022-08-19T04:19:21.065Z,89.09
2022-08-19T04:21:51.317Z,88.74
2022-08-19T04:24:18.354Z,88.72
2022-08-19T04:26:44.938Z,88.91
2022-08-19T04:29:15.388Z,88.74
2022-08-19T04:31:44.474Z,88.69
2022-08-19T04:34:13.400Z,88.43
2022-08-19T04:36:42.453Z,88.43
2022-08-19T04:39:15.684Z,88.44
2022-08-19T04:42:01.249Z,87.97
2022-08-19T04:44:31.376Z,87.78
2022-08-19T04:47:01.504Z,87.65
2022-08-19T04:49:28.198Z,88.36
2022-08-19T04:51:55.554Z,87.97
2022-08-19T04:54:37.014Z,87.86
2022-08-19T04:57:10.859Z,88.53
2022-08-19T04:59:39.409Z,88.94
2022-08-19T05:02:08.291Z,88.66
2022-08-19T05:04:34.875Z,88.21
2022-08-19T05:07:02.499Z,88.29
2022-08-19T05:09:42.150Z,88.42
2022-08-19T05:12:18.628Z,88.40
2022-08-19T05:14:45.888Z,88.26
2022-08-19T05:17:27.104Z,88.30
2022-08-19T05:20:13.372Z,88.07
2022-08-19T05:22:40.259Z,87.76
2022-08-19T05:25:13.093Z,87.87
2022-08-19T05:27:40.987Z,87.77
2022-08-19T05:30:07.976Z,87.78
2022-08-19T05:32:34.731Z,88.13
2022-08-19T05:35:01.586Z,87.89
2022-08-19T05:37:28.504Z,87.31
2022-08-19T05:39:55.912Z,87.64
2022-08-19T05:42:24.303Z,87.71
2022-08-19T05:44:51.348Z,87.71
2022-08-19T05:47:20.470Z,88.03
2022-08-19T05:49:48.229Z,88.47
2022-08-19T05:52:18.729Z,88.73
2022-08-19T05:54:51.214Z,88.48
2022-08-19T05:57:19.231Z,88.44
2022-08-19T05:59:58.231Z,88.33
2022-08-19T06:02:31.448Z,87.97
2022-08-19T06:04:58.602Z,87.36
2022-08-19T06:07:25.079Z,88.03
2022-08-19T06:10:00.537Z,87.91
2022-08-19T06:12:30.588Z,87.94
2022-08-19T06:15:00.749Z,87.89
2022-08-19T06:17:27.878Z,88.15
2022-08-19T06:19:54.605Z,87.76
2022-08-19T06:22:21.135Z,87.76
2022-08-19T06:24:47.580Z,87.72
2022-08-19T06:27:14.572Z,88.40
2022-08-19T06:29:40.935Z,88.16
2022-08-19T06:32:07.304Z,88.37
2022-08-19T06:34:36.341Z,88.45
2022-08-19T06:37:03.981Z,88.08
2022-08-19T06:39:33.806Z,88.00
2022-08-19T06:42:04.544Z,88.26
2022-08-19T06:44:35.254Z,87.66
2022-08-19T06:47:14.588Z,87.93
2022-08-19T06:49:49.311Z,87.49
2022-08-19T06:52:17.233Z,87.37
2022-08-19T06:54:55.459Z,87.51
2022-08-19T06:57:23.859Z,88.06
2022-08-19T06:59:50.395Z,88.73
2022-08-19T07:04:52.587Z,90.06
2022-08-19T07:07:21.874Z,90.09
2022-08-19T07:10:00.042Z,89.62
2022-08-19T07:12:33.811Z,88.85
2022-08-19T07:15:03.359Z,88.07
2022-08-19T07:17:29.924Z,88.67
2022-08-19T07:19:57.624Z,88.56
2022-08-19T07:22:32.635Z,88.44
2022-08-19T07:24:59.069Z,87.53
2022-08-19T07:27:25.603Z,88.44
2022-08-19T07:29:55.919Z,87.97
2022-08-19T07:32:27.489Z,87.96
2022-08-19T07:34:54.056Z,87.49
2022-08-19T07:37:20.979Z,88.14
2022-08-19T07:39:47.941Z,87.59
2022-08-19T07:42:15.348Z,87.88
2022-08-19T07:44:43.186Z,88.09
2022-08-19T07:47:49.300Z,87.82
2022-08-19T07:50:07.864Z,87.77
2022-08-19T07:52:35.075Z,87.67
2022-08-19T07:55:04.550Z,87.59
2022-08-19T07:57:31.013Z,87.21
2022-08-19T07:59:57.407Z,87.40
2022-08-19T08:02:23.787Z,87.55
2022-08-19T08:05:09.336Z,86.96
2022-08-19T08:07:54.137Z,86.86
2022-08-19T08:10:21.548Z,86.64
2022-08-19T08:13:08.651Z,86.90
2022-08-19T08:15:42.988Z,87.15
2022-08-19T08:18:11.185Z,87.56
2022-08-19T08:20:37.741Z,87.39
2022-08-19T08:23:23.062Z,87.24
2022-08-19T08:25:50.576Z,87.06
2022-08-19T08:28:19.007Z,86.79
2022-08-19T08:30:49.000Z,86.22
2022-08-19T08:33:33.322Z,86.23
2022-08-19T08:36:01.949Z,85.68
2022-08-19T08:38:34.549Z,86.07
2022-08-19T08:41:20.905Z,86.06
2022-08-19T08:43:51.993Z,85.81
2022-08-19T08:46:31.335Z,86.54
2022-08-19T08:49:21.273Z,86.66
2022-08-19T08:52:11.243Z,86.64
2022-08-19T08:54:49.216Z,86.94
2022-08-19T08:57:36.974Z,87.64
2022-08-19T09:00:15.046Z,87.62
2022-08-19T09:02:43.548Z,87.43
2022-08-19T09:05:11.015Z,86.94
2022-08-19T09:07:57.630Z,87.38
2022-08-19T09:10:30.352Z,86.24
2022-08-19T09:13:15.937Z,86.48
2022-08-19T09:15:50.129Z,86.20
2022-08-19T09:18:19.272Z,86.43
2022-08-19T09:20:48.239Z,86.36
2022-08-19T09:23:14.995Z,86.06
2022-08-19T09:25:42.041Z,86.06
2022-08-19T09:28:15.189Z,84.95
2022-08-19T09:30:49.134Z,85.24
2022-08-19T09:33:17.003Z,85.23
2022-08-19T09:35:49.786Z,83.55
2022-08-19T09:38:21.083Z,84.31
2022-08-19T09:40:47.481Z,83.35
2022-08-19T09:43:13.838Z,83.26
2022-08-19T09:45:41.230Z,83.09
2022-08-19T09:48:07.649Z,83.05
2022-08-19T09:50:39.352Z,84.39
2022-08-19T09:53:19.419Z,84.43
2022-08-19T09:55:45.853Z,84.15
2022-08-19T09:58:12.861Z,83.43
2022-08-19T10:00:39.758Z,82.70
2022-08-19T10:03:06.131Z,84.08
2022-08-19T10:05:55.123Z,83.76
2022-08-19T10:08:26.635Z,83.97
2022-08-19T10:10:54.618Z,83.86
2022-08-19T10:13:25.877Z,84.54
2022-08-19T10:15:54.934Z,84.96
2022-08-19T10:18:24.071Z,84.70
2022-08-19T10:20:55.832Z,85.38
2022-08-19T10:23:22.384Z,85.13
2022-08-19T10:25:51.092Z,85.87
2022-08-19T10:28:19.415Z,86.30
2022-08-19T10:30:46.558Z,86.85
2022-08-19T10:33:14.304Z,86.45
2022-08-19T10:35:56.279Z,86.11
2022-08-19T10:38:31.805Z,86.26
2022-08-19T10:41:08.255Z,86.01
2022-08-19T10:43:38.623Z,86.50
2022-08-19T10:46:13.910Z,86.02
2022-08-19T10:48:44.459Z,86.10
2022-08-19T10:51:30.827Z,86.03
2022-08-19T10:53:57.492Z,85.86
2022-08-19T10:56:42.597Z,85.50
2022-08-19T10:59:10.346Z,85.53
2022-08-19T11:01:37.573Z,85.65
2022-08-19T11:04:05.241Z,85.57
2022-08-19T11:06:35.290Z,86.07
2022-08-19T11:09:01.666Z,86.43
2022-08-19T11:11:29.330Z,86.02
2022-08-19T11:13:56.278Z,86.14
2022-08-19T11:16:25.514Z,87.01
2022-08-19T11:18:55.148Z,86.83
2022-08-19T11:21:23.755Z,86.89
2022-08-19T11:23:53.079Z,86.66
2022-08-19T11:26:21.100Z,86.97
2022-08-19T11:28:49.190Z,86.69
2022-08-19T11:31:21.376Z,86.43
2022-08-19T11:33:56.868Z,86.26
2022-08-19T11:36:23.266Z,86.45
2022-08-19T11:38:51.065Z,86.50
2022-08-19T11:41:20.410Z,86.86
2022-08-19T11:43:46.869Z,86.41
2022-08-19T11:46:15.775Z,86.02
2022-08-19T11:48:43.112Z,85.63
2022-08-19T11:51:13.242Z,86.42
2022-08-19T11:53:40.250Z,86.55
2022-08-19T11:56:08.343Z,87.98
2022-08-19T11:58:35.692Z,87.96
2022-08-19T12:01:02.219Z,87.68
2022-08-19T12:03:29.606Z,87.37
2022-08-19T12:05:56.023Z,86.88
2022-08-19T12:08:22.452Z,86.76
2022-08-19T12:10:49.372Z,86.82
2022-08-19T12:13:19.441Z,86.42
2022-08-19T12:15:47.887Z,86.85
2022-08-19T12:18:15.496Z,87.09
2022-08-19T12:20:44.034Z,86.61
2022-08-19T12:23:11.326Z,86.63
2022-08-19T12:25:44.351Z,86.30
2022-08-19T12:28:10.703Z,86.17
2022-08-19T12:30:39.184Z,85.91
2022-08-19T12:33:06.014Z,85.99
2022-08-19T12:35:32.744Z,86.46
2022-08-19T12:37:59.905Z,85.71
2022-08-19T12:40:27.109Z,86.05
2022-08-19T12:42:54.506Z,85.48
2022-08-19T12:45:20.929Z,85.97
2022-08-19T12:47:47.991Z,85.88
2022-08-19T12:50:16.664Z,85.65
2022-08-19T12:52:43.274Z,85.38
2022-08-19T12:55:12.344Z,85.87
2022-08-19T12:57:39.044Z,86.21
2022-08-19T13:00:14.888Z,86.43
2022-08-19T13:02:46.360Z,86.79
2022-08-19T13:05:24.977Z,86.23
2022-08-19T13:07:56.743Z,86.10
2022-08-19T13:10:26.878Z,86.14
2022-08-19T13:12:54.115Z,86.03
2022-08-19T13:15:24.135Z,86.05
2022-08-19T13:17:52.666Z,86.14
2022-08-19T13:20:21.628Z,86.94
2022-08-19T13:22:49.144Z,86.37
2022-08-19T13:25:18.763Z,86.21
2022-08-19T13:27:45.404Z,86.36
2022-08-19T13:30:33.129Z,86.65
2022-08-19T13:33:11.794Z,87.20
2022-08-19T13:35:50.780Z,87.66
2022-08-19T13:38:21.440Z,87.70
2022-08-19T13:40:51.087Z,87.38
2022-08-19T13:43:23.019Z,87.36
2022-08-19T13:45:55.040Z,87.69
2022-08-19T13:48:21.996Z,87.46
2022-08-19T13:50:49.005Z,87.83
2022-08-19T13:53:18.243Z,87.71
2022-08-19T13:55:44.867Z,87.57
2022-08-19T13:58:12.520Z,87.66
2022-08-19T14:00:43.327Z,87.99
2022-08-19T14:03:10.634Z,88.06
2022-08-19T14:05:37.892Z,87.86
2022-08-19T14:08:04.690Z,87.65
2022-08-19T14:10:32.427Z,87.55
2022-08-19T14:13:02.175Z,87.98
2022-08-19T14:15:29.664Z,88.10
2022-08-19T14:17:57.007Z,88.46
2022-08-19T14:20:25.939Z,88.61
2022-08-19T14:22:53.654Z,88.34
2022-08-19T14:25:23.212Z,88.70
2022-08-19T14:27:49.780Z,88.25
2022-08-19T14:30:20.644Z,88.22
2022-08-19T14:32:47.590Z,88.88
2022-08-19T14:35:15.782Z,89.48
2022-08-19T14:37:56.644Z,89.36
2022-08-19T14:40:28.691Z,89.45
2022-08-19T14:43:05.019Z,89.83
2022-08-19T14:45:39.100Z,89.88
2022-08-19T14:48:09.188Z,89.91
2022-08-19T14:50:46.027Z,90.04
2022-08-19T14:53:12.933Z,89.48
2022-08-19T14:55:43.863Z,89.20
2022-08-19T14:58:28.998Z,89.02
2022-08-19T15:00:58.524Z,87.83
2022-08-19T15:03:25.509Z,87.94
2022-08-19T15:05:52.456Z,88.26
2022-08-19T15:08:18.894Z,88.10
2022-08-19T15:10:46.575Z,88.23
2022-08-19T15:13:13.356Z,88.56
2022-08-19T15:15:40.355Z,88.47
2022-08-19T15:18:07.327Z,88.51
2022-08-19T15:20:33.742Z,88.24
2022-08-19T15:23:01.077Z,88.39
2022-08-19T15:25:28.819Z,88.12
2022-08-19T15:27:55.650Z,88.34
2022-08-19T15:30:28.024Z,88.75
2022-08-19T15:32:56.620Z,88.97
2022-08-19T15:35:23.995Z,89.26
2022-08-19T15:37:51.767Z,89.17
2022-08-19T15:40:19.661Z,89.20
2022-08-19T15:42:47.454Z,88.96
2022-08-19T15:45:15.204Z,88.98
2022-08-19T15:47:41.626Z,88.93
2022-08-19T15:50:21.191Z,89.44
2022-08-19T15:52:55.314Z,89.20
2022-08-19T15:55:33.800Z,88.90
2022-08-19T15:58:29.896Z,89.04
2022-08-19T16:01:21.298Z,89.12
2022-08-19T16:04:13.908Z,89.04
2022-08-19T16:06:48.077Z,88.84
2022-08-19T16:09:16.799Z,88.96
2022-08-19T16:11:45.919Z,88.88
2022-08-19T16:14:15.302Z,88.40
2022-08-19T16:16:41.985Z,88.67
2022-08-19T16:19:11.791Z,88.68
2022-08-19T16:21:41.546Z,88.55
2022-08-19T16:24:10.979Z,89.77
2022-08-19T16:26:37.924Z,89.72
2022-08-19T16:29:08.850Z,89.52
2022-08-19T16:31:39.474Z,89.19
2022-08-19T16:34:06.515Z,90.41
2022-08-19T16:36:33.335Z,90.80
2022-08-19T16:39:00.626Z,90.70
2022-08-19T16:41:28.292Z,89.96
2022-08-19T16:43:55.243Z,89.23
2022-08-19T16:46:23.076Z,89.23
2022-08-19T16:48:54.255Z,89.14
2022-08-19T16:51:22.510Z,89.28
2022-08-19T16:53:49.648Z,89.99
2022-08-19T16:56:16.455Z,90.40
2022-08-19T16:58:43.136Z,90.59
2022-08-19T17:01:10.770Z,90.35
2022-08-19T17:03:38.419Z,90.99
2022-08-19T17:06:19.030Z,91.52
2022-08-19T17:08:50.258Z,91.53
2022-08-19T17:11:19.077Z,92.04
2022-08-19T17:13:47.488Z,91.92
2022-08-19T17:16:15.888Z,92.10
2022-08-19T17:18:42.260Z,92.06
2022-08-19T17:21:08.615Z,92.22
2022-08-19T17:23:36.653Z,92.22
2022-08-19T17:26:09.871Z,91.59
2022-08-19T17:28:45.018Z,91.72
2022-08-19T17:31:11.498Z,91.29
2022-08-19T17:33:41.074Z,91.74
2022-08-19T17:36:08.440Z,91.71
2022-08-19T17:38:35.769Z,91.83
2022-08-19T17:41:05.477Z,91.54
2022-08-19T17:43:37.935Z,91.32
2022-08-19T17:46:06.693Z,91.10
2022-08-19T17:48:41.236Z,90.77
2022-08-19T17:51:21.905Z,91.04
2022-08-19T17:53:51.074Z,90.80
2022-08-19T17:56:18.018Z,90.34
2022-08-19T17:58:49.668Z,90.25
2022-08-19T18:01:31.460Z,90.15
2022-08-19T18:04:13.942Z,91.13
2022-08-19T18:06:41.800Z,91.55
2022-08-19T18:09:13.406Z,92.33
2022-08-19T18:11:39.798Z,92.06
2022-08-19T18:14:06.699Z,92.44
2022-08-19T18:16:33.059Z,92.94
2022-08-19T18:18:59.607Z,92.75
2022-08-19T18:21:31.511Z,92.99
2022-08-19T18:24:01.642Z,92.87
2022-08-19T18:26:30.217Z,92.80
2022-08-19T18:28:57.262Z,92.93
2022-08-19T18:31:24.064Z,93.05
2022-08-19T18:33:53.081Z,93.07
2022-08-19T18:36:37.388Z,93.04
2022-08-19T18:39:26.318Z,92.93
2022-08-19T18:42:14.524Z,92.83
2022-08-19T18:45:00.041Z,92.57
2022-08-19T18:47:45.168Z,92.43
2022-08-19T18:50:13.874Z,92.42
2022-08-19T18:52:41.234Z,92.73
2022-08-19T18:55:08.190Z,92.70
2022-08-19T18:57:35.247Z,92.96
2022-08-19T19:00:04.683Z,92.76
2022-08-19T19:02:38.694Z,93.61
2022-08-19T19:05:07.682Z,93.61
2022-08-19T19:07:34.891Z,93.59
2022-08-19T19:10:01.332Z,93.48
2022-08-19T19:12:31.034Z,93.48
2022-08-19T19:14:59.083Z,93.56
2022-08-19T19:17:28.383Z,93.63
2022-08-19T19:19:54.929Z,93.87
2022-08-19T19:22:22.600Z,94.03
2022-08-19T19:24:50.972Z,94.03
2022-08-19T19:27:20.254Z,93.84
2022-08-19T19:29:51.935Z,93.76
2022-08-19T19:32:36.937Z,93.67
2022-08-19T19:35:06.404Z,93.45
2022-08-19T19:37:33.688Z,93.04
2022-08-19T19:40:00.120Z,93.50
2022-08-19T19:42:26.564Z,93.53
2022-08-19T19:44:56.012Z,93.24
2022-08-19T19:47:24.387Z,93.48
2022-08-19T19:52:39.144Z,93.45
2022-08-19T19:55:06.880Z,93.66
2022-08-19T19:57:33.264Z,93.75
2022-08-19T20:00:00.076Z,93.72
2022-08-19T20:02:26.842Z,94.17
2022-08-19T20:04:56.145Z,93.88
2022-08-19T20:07:42.983Z,94.04
2022-08-19T20:10:09.540Z,94.14
2022-08-19T20:12:35.911Z,94.38
2022-08-19T20:15:03.250Z,94.48
2022-08-19T20:17:29.652Z,94.31
2022-08-19T20:19:57.396Z,94.53
2022-08-19T20:22:25.535Z,94.20
2022-08-19T20:24:53.967Z,94.37
2022-08-19T20:27:20.523Z,94.24
2022-08-19T20:29:50.615Z,94.13
2022-08-19T20:32:18.540Z,94.08
2022-08-19T20:34:48.867Z,93.73
2022-08-19T20:37:15.273Z,93.60
2022-08-19T20:39:42.317Z,93.91
2022-08-19T20:42:08.783Z,93.78
2022-08-19T20:44:35.527Z,93.84
2022-08-19T20:47:04.075Z,93.87
2022-08-19T20:49:31.094Z,93.98
2022-08-19T20:51:58.514Z,94.12
2022-08-19T20:54:25.266Z,94.05
2022-08-19T20:56:51.784Z,93.83
2022-08-19T20:59:20.075Z,93.88
2022-08-19T21:01:46.907Z,94.03
2022-08-19T21:04:13.446Z,93.73
2022-08-19T21:06:39.867Z,93.83
2022-08-19T21:09:08.889Z,94.00
2022-08-19T21:11:36.011Z,94.05
2022-08-19T21:14:02.770Z,93.61
2022-08-19T21:16:29.502Z,93.73
2022-08-19T21:18:55.886Z,93.97
2022-08-19T21:21:22.227Z,93.94
2022-08-19T21:23:49.674Z,93.88
2022-08-19T21:26:16.123Z,93.90
2022-08-19T21:28:42.475Z,94.21
2022-08-19T21:31:15.139Z,94.44
2022-08-19T21:33:41.591Z,94.22
2022-08-19T21:36:08.719Z,94.47
2022-08-19T21:38:35.886Z,94.34
2022-08-19T21:41:05.816Z,94.51
2022-08-19T21:43:33.766Z,94.06
2022-08-19T21:46:00.475Z,94.11
2022-08-19T21:48:27.572Z,94.07
2022-08-19T21:50:53.929Z,94.10
2022-08-19T21:53:23.020Z,93.96
2022-08-19T21:55:53.139Z,94.24
2022-08-19T21:58:30.092Z,94.18
2022-08-19T22:01:06.098Z,93.71
2022-08-19T22:03:34.095Z,93.66
2022-08-19T22:06:00.850Z,93.51
2022-08-19T22:08:27.768Z,93.64
2022-08-19T22:10:54.206Z,93.31
2022-08-19T22:13:20.626Z,93.52
2022-08-19T22:15:49.188Z,93.59
2022-08-19T22:18:17.702Z,93.69
2022-08-19T22:20:44.954Z,93.31
2022-08-19T22:23:11.684Z,94.06
2022-08-19T22:25:43.071Z,93.58
2022-08-19T22:28:12.820Z,93.45
2022-08-19T22:30:42.601Z,93.59
2022-08-19T22:33:12.516Z,93.75
2022-08-19T22:35:41.887Z,93.88
2022-08-19T22:38:09.359Z,94.04
2022-08-19T22:40:39.567Z,93.89
2022-08-19T22:43:22.194Z,94.10
2022-08-19T22:45:49.979Z,94.16
2022-08-19T22:48:19.947Z,94.06
2022-08-19T22:51:09.219Z,94.09
2022-08-19T22:53:37.688Z,94.09
2022-08-19T22:56:06.314Z,93.84
2022-08-19T22:58:33.237Z,93.91
2022-08-19T23:01:00.030Z,93.80
2022-08-19T23:03:26.668Z,93.60
2022-08-19T23:05:54.264Z,93.30
2022-08-19T23:08:20.635Z,93.86
2022-08-19T23:10:48.442Z,93.47
2022-08-19T23:13:17.746Z,93.30
2022-08-19T23:15:46.006Z,93.34
2022-08-19T23:18:12.679Z,93.62
2022-08-19T23:20:41.444Z,93.68
2022-08-19T23:23:10.896Z,93.76
2022-08-19T23:25:38.139Z,93.59
2022-08-19T23:28:24.554Z,93.67
2022-08-19T23:30:52.763Z,93.80
2022-08-19T23:33:46.636Z,94.12
2022-08-19T23:36:19.387Z,93.92
2022-08-19T23:38:47.867Z,93.53
2022-08-19T23:41:15.591Z,93.82
2022-08-19T23:43:43.123Z,93.88
2022-08-19T23:46:11.448Z,93.77
2022-08-19T23:48:39.709Z,93.64
2022-08-19T23:51:10.243Z,93.56
2022-08-19T23:53:39.317Z,93.43
2022-08-19T23:56:07.324Z,93.24
2022-08-19T23:58:35.228Z,93.09
